Time;durP1;ratioP1;P1;durP2;ratioP2;P2;SDS_P1;SDS_P2;PMS_P1;PMS_P2;Temp;Humidity;BMP_temperature;BMP_pressure;BME280_temperature;BME280_humidity;BME280_pressure;Samples;Min_cycle;Max_cycle;Signal;HPM_P1;HPM_P2
2022/07/16 00:02:32;;;;;;;2.00;0.93;;;;;;;;;;5090750;28;20027;-72
2022/07/16 00:04:57;;;;;;;3.55;1.40;;;;;;;;;;5090759;28;20409;-73
2022/07/16 00:07:22;;;;;;;3.15;1.08;;;;;;;;;;5091669;28;20312;-73
2022/07/16 00:09:48;;;;;;;0.98;0.90;;;;;;;;;;5090983;28;20036;-72
2022/07/16 00:12:13;;;;;;;1.52;1.10;;;;;;;;;;5089780;28;20081;-73
2022/07/16 00:14:38;;;;;;;3.95;1.35;;;;;;;;;;5091622;28;20048;-73
2022/07/16 00:17:04;;;;;;;2.10;1.08;;;;;;;;;;5091593;28;20016;-72
2022/07/16 00:19:29;;;;;;;2.08;1.30;;;;;;;;;;5090693;28;20023;-73
2022/07/16 00:21:56;;;;;;;3.25;1.40;;;;;;;;;;5090787;28;20161;-73
2022/07/16 00:24:22;;;;;;;3.85;1.15;;;;;;;;;;5090872;28;20085;-73
2022/07/16 00:26:47;;;;;;;2.05;1.30;;;;;;;;;;5091120;28;20106;-73
2022/07/16 00:29:15;;;;;;;4.65;1.83;;;;;;;;;;5090042;28;20584;-73
2022/07/16 00:31:40;;;;;;;2.30;1.20;;;;;;;;;;5091370;28;20023;-72
2022/07/16 00:34:07;;;;;;;1.27;1.10;;;;;;;;;;5091444;28;20054;-73
2022/07/16 00:36:35;;;;;;;2.53;1.23;;;;;;;;;;5091311;28;20031;-73
2022/07/16 00:39:00;;;;;;;1.92;1.17;;;;;;;;;;5090937;28;20470;-71
2022/07/16 00:41:26;;;;;;;1.27;1.17;;;;;;;;;;5091157;28;20023;-73
2022/07/16 00:43:56;;;;;;;3.28;1.40;;;;;;;;;;5091009;28;20427;-73
2022/07/16 00:46:21;;;;;;;2.67;1.48;;;;;;;;;;5090777;28;20055;-73
2022/07/16 00:48:47;;;;;;;1.83;1.20;;;;;;;;;;5091128;28;20056;-73
2022/07/16 00:51:14;;;;;;;4.20;1.17;;;;;;;;;;5090664;28;20057;-73
2022/07/16 00:53:39;;;;;;;4.57;1.10;;;;;;;;;;5088524;28;20032;-72
2022/07/16 00:56:15;;;;;;;1.67;1.35;;;;;;;;;;5089644;28;20034;-73
2022/07/16 00:58:42;;;;;;;3.03;1.40;;;;;;;;;;5089985;28;20020;-73
2022/07/16 01:01:08;;;;;;;4.60;1.20;;;;;;;;;;5090338;28;20040;-72
2022/07/16 01:03:34;;;;;;;4.32;1.20;;;;;;;;;;5090595;28;20128;-72
2022/07/16 01:06:02;;;;;;;2.50;1.30;;;;;;;;;;5090178;28;20035;-72
2022/07/16 01:08:28;;;;;;;4.07;1.60;;;;;;;;;;5090068;28;20115;-73
2022/07/16 01:10:55;;;;;;;3.58;1.20;;;;;;;;;;5091749;28;20070;-73
2022/07/16 01:13:21;;;;;;;2.20;1.10;;;;;;;;;;5101799;22;20059;-71
2022/07/16 01:15:47;;;;;;;1.25;1.00;;;;;;;;;;5068474;28;20032;-72
2022/07/16 01:18:12;;;;;;;1.98;1.25;;;;;;;;;;5083913;28;20025;-72
2022/07/16 01:20:37;;;;;;;2.58;1.40;;;;;;;;;;5083887;28;20033;-72
2022/07/16 01:23:03;;;;;;;3.25;1.45;;;;;;;;;;5068379;28;20020;-72
2022/07/16 01:25:28;;;;;;;1.40;0.90;;;;;;;;;;5068130;28;20113;-71
2022/07/16 01:27:53;;;;;;;2.78;1.30;;;;;;;;;;5068271;28;20063;-72
2022/07/16 01:30:19;;;;;;;2.47;1.20;;;;;;;;;;5068204;28;20386;-71
2022/07/16 01:32:44;;;;;;;4.75;1.50;;;;;;;;;;5068436;28;20450;-72
2022/07/16 01:35:10;;;;;;;3.75;1.40;;;;;;;;;;5068518;28;20350;-71
2022/07/16 01:37:36;;;;;;;2.55;1.48;;;;;;;;;;5068415;28;20036;-71
2022/07/16 01:40:02;;;;;;;3.17;1.58;;;;;;;;;;5068190;28;20043;-73
2022/07/16 01:42:27;;;;;;;1.55;1.20;;;;;;;;;;5068301;28;20029;-72
2022/07/16 01:44:53;;;;;;;3.35;1.50;;;;;;;;;;5067344;28;20029;-72
2022/07/16 01:47:18;;;;;;;2.65;1.58;;;;;;;;;;5068360;28;20136;-72
2022/07/16 01:49:45;;;;;;;2.13;1.50;;;;;;;;;;5068196;28;20028;-72
2022/07/16 01:52:13;;;;;;;4.32;1.30;;;;;;;;;;5068220;28;20104;-72
2022/07/16 01:54:44;;;;;;;2.15;1.48;;;;;;;;;;5068176;28;20073;-72
2022/07/16 01:57:10;;;;;;;3.40;1.90;;;;;;;;;;5066612;28;20109;-72
2022/07/16 01:59:36;;;;;;;2.08;1.48;;;;;;;;;;5067792;28;20105;-72
2022/07/16 02:02:01;;;;;;;5.07;1.83;;;;;;;;;;5067924;28;20478;-72
2022/07/16 02:04:27;;;;;;;2.15;1.30;;;;;;;;;;5066756;28;20077;-72
2022/07/16 02:06:52;;;;;;;3.78;1.38;;;;;;;;;;5068030;28;20025;-72
2022/07/16 02:09:17;;;;;;;1.63;1.30;;;;;;;;;;5067907;28;20039;-72
2022/07/16 02:11:43;;;;;;;2.40;1.50;;;;;;;;;;5068083;28;20262;-72
2022/07/16 02:14:08;;;;;;;1.75;1.30;;;;;;;;;;5067891;28;20044;-72
2022/07/16 02:16:33;;;;;;;2.25;1.20;;;;;;;;;;5068013;28;20111;-72
2022/07/16 02:18:59;;;;;;;2.30;1.40;;;;;;;;;;5067766;28;20108;-72
2022/07/16 02:21:24;;;;;;;2.45;1.50;;;;;;;;;;5067753;28;20016;-72
2022/07/16 02:23:49;;;;;;;3.00;1.88;;;;;;;;;;5068422;28;20028;-72
2022/07/16 02:26:14;;;;;;;2.72;1.35;;;;;;;;;;5067976;28;20032;-72
2022/07/16 02:28:40;;;;;;;3.55;1.55;;;;;;;;;;5068303;28;20035;-72
2022/07/16 02:31:05;;;;;;;3.35;1.80;;;;;;;;;;5068476;28;20116;-71
2022/07/16 02:33:30;;;;;;;1.50;1.40;;;;;;;;;;5068007;28;20025;-71
2022/07/16 02:35:56;;;;;;;2.00;1.30;;;;;;;;;;5067955;28;20028;-72
2022/07/16 02:38:21;;;;;;;2.97;1.30;;;;;;;;;;5067506;28;20378;-72
2022/07/16 02:40:46;;;;;;;2.38;1.40;;;;;;;;;;5067707;28;20066;-71
2022/07/16 02:43:12;;;;;;;3.47;1.60;;;;;;;;;;5067606;28;20031;-72
2022/07/16 02:45:39;;;;;;;3.47;1.60;;;;;;;;;;5067674;28;20024;-72
2022/07/16 02:48:05;;;;;;;3.00;1.50;;;;;;;;;;5067567;28;20020;-72
2022/07/16 02:50:31;;;;;;;3.63;1.38;;;;;;;;;;5067638;28;20024;-73
2022/07/16 02:52:57;;;;;;;3.28;1.55;;;;;;;;;;5068020;28;20081;-72
2022/07/16 02:55:22;;;;;;;2.95;1.50;;;;;;;;;;5068533;28;20058;-72
2022/07/16 02:57:48;;;;;;;1.75;1.30;;;;;;;;;;5071098;28;20470;-72
2022/07/16 03:00:15;;;;;;;1.85;1.33;;;;;;;;;;5070849;28;20028;-72
2022/07/16 03:02:41;;;;;;;2.45;1.80;;;;;;;;;;5071129;28;20024;-72
2022/07/16 03:05:07;;;;;;;4.35;1.58;;;;;;;;;;5071211;28;20043;-72
2022/07/16 03:07:32;;;;;;;4.70;1.70;;;;;;;;;;5071214;28;20027;-72
2022/07/16 03:09:58;;;;;;;1.40;1.30;;;;;;;;;;5070977;28;20028;-72
2022/07/16 03:12:23;;;;;;;2.28;1.65;;;;;;;;;;5070557;28;20074;-72
2022/07/16 03:14:49;;;;;;;3.20;1.70;;;;;;;;;;5070661;28;20051;-72
2022/07/16 03:17:14;;;;;;;2.58;1.48;;;;;;;;;;5070722;28;20044;-73
2022/07/16 03:19:40;;;;;;;3.55;1.65;;;;;;;;;;5070425;28;20028;-72
2022/07/16 03:22:05;;;;;;;4.00;1.40;;;;;;;;;;5070568;28;20039;-72
2022/07/16 03:24:31;;;;;;;2.05;1.40;;;;;;;;;;5070811;28;20070;-72
2022/07/16 03:26:56;;;;;;;2.50;1.65;;;;;;;;;;5068938;28;20115;-72
2022/07/16 03:29:22;;;;;;;3.67;1.77;;;;;;;;;;5070485;28;20513;-72
2022/07/16 03:31:47;;;;;;;3.17;1.52;;;;;;;;;;5070444;28;20048;-72
2022/07/16 03:34:13;;;;;;;3.30;1.70;;;;;;;;;;5070248;28;20432;-72
2022/07/16 03:36:38;;;;;;;4.20;1.75;;;;;;;;;;5070281;28;20038;-72
2022/07/16 03:39:06;;;;;;;2.88;1.67;;;;;;;;;;5070146;28;20067;-72
2022/07/16 03:41:34;;;;;;;5.30;1.83;;;;;;;;;;5070153;28;20020;-72
2022/07/16 03:44:01;;;;;;;2.85;1.70;;;;;;;;;;5070162;28;20104;-72
2022/07/16 03:46:26;;;;;;;4.47;1.80;;;;;;;;;;5070105;28;20482;-72
2022/07/16 03:48:52;;;;;;;3.30;1.60;;;;;;;;;;5069857;28;20025;-72
2022/07/16 03:51:17;;;;;;;5.93;1.98;;;;;;;;;;5070446;28;20385;-71
2022/07/16 03:53:42;;;;;;;3.92;1.52;;;;;;;;;;5069964;28;20081;-71
2022/07/16 03:56:08;;;;;;;4.57;1.70;;;;;;;;;;5069868;28;20029;-72
2022/07/16 03:58:34;;;;;;;1.77;1.40;;;;;;;;;;5069734;28;20401;-72
2022/07/16 04:01:00;;;;;;;5.50;1.83;;;;;;;;;;5069802;28;20033;-72
2022/07/16 04:03:25;;;;;;;2.88;1.55;;;;;;;;;;5068304;28;20020;-72
2022/07/16 04:05:50;;;;;;;3.25;2.05;;;;;;;;;;5070152;28;20024;-72
2022/07/16 04:08:16;;;;;;;5.22;1.80;;;;;;;;;;5068750;28;20021;-72
2022/07/16 04:10:42;;;;;;;2.47;1.75;;;;;;;;;;5069559;28;20033;-73
2022/07/16 04:13:07;;;;;;;3.00;1.80;;;;;;;;;;5069692;28;20173;-72
2022/07/16 04:15:32;;;;;;;4.15;1.92;;;;;;;;;;5069601;28;20482;-72
2022/07/16 04:17:58;;;;;;;1.95;1.70;;;;;;;;;;5069633;28;20044;-72
2022/07/16 04:20:24;;;;;;;5.07;1.88;;;;;;;;;;5069846;28;20078;-72
2022/07/16 04:22:49;;;;;;;3.17;1.70;;;;;;;;;;5069523;28;20537;-72
2022/07/16 04:25:15;;;;;;;2.65;1.80;;;;;;;;;;5069187;28;20039;-72
2022/07/16 04:27:41;;;;;;;3.40;1.77;;;;;;;;;;5069554;28;20036;-72
2022/07/16 04:30:07;;;;;;;3.10;1.67;;;;;;;;;;5067534;28;20082;-72
2022/07/16 04:32:34;;;;;;;3.28;2.00;;;;;;;;;;5069121;28;20485;-72
2022/07/16 04:34:59;;;;;;;2.75;1.75;;;;;;;;;;5069537;28;20429;-72
2022/07/16 04:37:25;;;;;;;2.88;1.80;;;;;;;;;;5069167;28;20123;-72
2022/07/16 04:39:51;;;;;;;2.33;1.80;;;;;;;;;;5068729;28;20025;-72
2022/07/16 04:42:16;;;;;;;2.55;1.80;;;;;;;;;;5069116;28;20028;-72
2022/07/16 04:44:41;;;;;;;3.10;1.95;;;;;;;;;;5068896;28;20070;-72
2022/07/16 04:47:07;;;;;;;4.55;1.70;;;;;;;;;;5068970;28;20032;-72
2022/07/16 04:49:32;;;;;;;3.17;1.70;;;;;;;;;;5068673;28;20056;-73
2022/07/16 04:51:57;;;;;;;3.20;1.70;;;;;;;;;;5068817;28;20032;-73
2022/07/16 04:54:22;;;;;;;2.42;1.80;;;;;;;;;;5068701;28;20028;-72
2022/07/16 04:56:48;;;;;;;4.32;1.98;;;;;;;;;;5068596;28;20032;-72
2022/07/16 04:59:13;;;;;;;2.95;2.00;;;;;;;;;;5067010;28;20432;-73
2022/07/16 05:01:38;;;;;;;4.68;2.00;;;;;;;;;;5068808;28;20107;-72
2022/07/16 05:04:04;;;;;;;2.42;1.70;;;;;;;;;;5068804;28;20059;-72
2022/07/16 05:06:29;;;;;;;3.97;1.90;;;;;;;;;;5068609;28;20063;-73
2022/07/16 05:08:56;;;;;;;2.55;1.88;;;;;;;;;;5068224;28;20124;-72
2022/07/16 05:11:22;;;;;;;2.80;1.98;;;;;;;;;;5067110;28;20032;-72
2022/07/16 05:13:47;;;;;;;4.82;1.90;;;;;;;;;;5068589;28;20409;-72
2022/07/16 05:16:12;;;;;;;2.55;1.60;;;;;;;;;;5067233;28;20049;-72
2022/07/16 05:18:38;;;;;;;3.45;2.15;;;;;;;;;;5067567;28;20437;-72
2022/07/16 05:21:03;;;;;;;2.78;1.80;;;;;;;;;;5068305;28;20099;-73
2022/07/16 05:23:28;;;;;;;2.10;1.70;;;;;;;;;;5068358;28;20032;-73
2022/07/16 05:25:54;;;;;;;5.68;1.90;;;;;;;;;;5068346;28;20032;-73
2022/07/16 05:28:19;;;;;;;4.63;1.90;;;;;;;;;;5068243;28;20101;-73
2022/07/16 05:30:44;;;;;;;3.28;2.10;;;;;;;;;;5068279;28;20028;-73
2022/07/16 05:33:09;;;;;;;2.60;1.80;;;;;;;;;;5068350;28;20125;-72
2022/07/16 05:35:35;;;;;;;2.38;1.73;;;;;;;;;;5068355;28;20496;-73
2022/07/16 05:38:00;;;;;;;5.13;2.10;;;;;;;;;;5068073;28;20514;-72
2022/07/16 05:40:26;;;;;;;2.75;1.80;;;;;;;;;;5068093;28;20024;-72
2022/07/16 05:42:51;;;;;;;4.28;1.90;;;;;;;;;;5067634;28;20559;-72
2022/07/16 05:45:17;;;;;;;2.28;1.80;;;;;;;;;;5067943;28;20107;-72
2022/07/16 05:47:43;;;;;;;5.20;2.58;;;;;;;;;;5068092;28;20393;-72
2022/07/16 05:50:08;;;;;;;2.30;1.90;;;;;;;;;;5067535;28;20020;-72
2022/07/16 05:52:34;;;;;;;2.50;2.08;;;;;;;;;;5068004;28;20048;-72
2022/07/16 05:54:59;;;;;;;3.30;2.00;;;;;;;;;;5068075;28;20032;-72
2022/07/16 05:57:24;;;;;;;4.60;1.70;;;;;;;;;;5068010;28;20424;-72
2022/07/16 05:59:50;;;;;;;2.65;1.55;;;;;;;;;;5067752;28;20056;-72
2022/07/16 06:02:15;;;;;;;3.60;1.90;;;;;;;;;;5068040;28;20120;-72
2022/07/16 06:04:41;;;;;;;2.30;1.90;;;;;;;;;;5068028;28;20027;-73
2022/07/16 06:07:06;;;;;;;6.00;2.00;;;;;;;;;;5068136;28;20080;-72
2022/07/16 06:09:31;;;;;;;5.40;1.95;;;;;;;;;;5067949;28;20031;-73
2022/07/16 06:11:57;;;;;;;3.45;1.88;;;;;;;;;;5068004;28;20078;-72
2022/07/16 06:14:22;;;;;;;4.20;1.70;;;;;;;;;;5067822;28;20043;-73
2022/07/16 06:16:48;;;;;;;2.97;1.60;;;;;;;;;;5067956;28;20321;-74
2022/07/16 06:19:13;;;;;;;5.07;1.70;;;;;;;;;;5067801;28;20505;-73
2022/07/16 06:21:39;;;;;;;3.28;1.83;;;;;;;;;;5067755;28;20111;-73
2022/07/16 06:24:04;;;;;;;3.88;1.70;;;;;;;;;;5067707;28;20043;-73
2022/07/16 06:26:30;;;;;;;3.95;1.77;;;;;;;;;;5066176;28;20448;-72
2022/07/16 06:28:55;;;;;;;2.55;1.67;;;;;;;;;;5067705;28;20027;-73
2022/07/16 06:31:20;;;;;;;4.15;1.63;;;;;;;;;;5081566;28;20119;-73
2022/07/16 06:33:46;;;;;;;3.45;1.25;;;;;;;;;;5079820;28;20036;-73
2022/07/16 06:36:11;;;;;;;2.55;1.65;;;;;;;;;;5071462;28;20111;-73
2022/07/16 06:38:37;;;;;;;2.22;1.42;;;;;;;;;;5071143;28;20036;-73
2022/07/16 06:41:02;;;;;;;3.17;1.67;;;;;;;;;;5071174;28;20573;-73
2022/07/16 06:43:27;;;;;;;3.92;1.60;;;;;;;;;;5071180;28;20086;-73
2022/07/16 06:45:52;;;;;;;6.55;1.45;;;;;;;;;;5071297;28;20029;-73
2022/07/16 06:48:18;;;;;;;3.15;1.50;;;;;;;;;;5070996;28;20021;-73
2022/07/16 06:50:44;;;;;;;1.98;1.25;;;;;;;;;;5071581;28;20020;-73
2022/07/16 06:53:09;;;;;;;2.08;1.40;;;;;;;;;;5070957;28;20111;-72
2022/07/16 06:55:34;;;;;;;4.65;1.30;;;;;;;;;;5070977;28;20523;-73
2022/07/16 06:58:00;;;;;;;2.08;1.30;;;;;;;;;;5070866;28;20031;-73
2022/07/16 07:00:25;;;;;;;2.65;1.60;;;;;;;;;;5071009;28;20028;-73
2022/07/16 07:02:50;;;;;;;4.65;1.55;;;;;;;;;;5071121;28;20035;-72
2022/07/16 07:05:16;;;;;;;3.63;1.30;;;;;;;;;;5070921;28;20097;-73
2022/07/16 07:07:41;;;;;;;1.92;1.30;;;;;;;;;;5067610;28;20161;-73
2022/07/16 07:10:06;;;;;;;3.63;1.40;;;;;;;;;;5067253;28;20115;-73
2022/07/16 07:12:35;;;;;;;3.90;1.60;;;;;;;;;;5068359;28;20082;-73
2022/07/16 07:15:00;;;;;;;3.60;1.42;;;;;;;;;;5067254;28;20039;-72
2022/07/16 07:17:25;;;;;;;3.53;1.23;;;;;;;;;;5067716;28;20024;-73
2022/07/16 07:19:51;;;;;;;4.15;1.77;;;;;;;;;;5066800;28;20033;-73
2022/07/16 07:22:16;;;;;;;5.05;1.40;;;;;;;;;;5066204;28;20145;-72
2022/07/16 07:24:41;;;;;;;3.40;1.50;;;;;;;;;;5067555;28;20028;-73
2022/07/16 07:27:06;;;;;;;2.65;1.30;;;;;;;;;;5067044;28;20078;-72
2022/07/16 07:29:32;;;;;;;2.45;1.42;;;;;;;;;;5067376;28;20035;-73
2022/07/16 07:31:57;;;;;;;5.88;1.38;;;;;;;;;;5067085;28;20402;-72
2022/07/16 07:34:23;;;;;;;1.75;1.23;;;;;;;;;;5067078;28;20508;-72
2022/07/16 07:36:48;;;;;;;2.70;1.30;;;;;;;;;;5067062;28;20389;-73
2022/07/16 07:39:13;;;;;;;2.53;1.45;;;;;;;;;;5066538;28;20021;-71
2022/07/16 07:41:39;;;;;;;2.05;1.30;;;;;;;;;;5066618;28;20494;-72
2022/07/16 07:44:04;;;;;;;2.22;1.30;;;;;;;;;;5066449;28;20040;-72
2022/07/16 07:46:30;;;;;;;2.33;1.23;;;;;;;;;;5067141;28;20020;-74
2022/07/16 07:48:55;;;;;;;2.03;1.33;;;;;;;;;;5066614;28;20078;-73
2022/07/16 07:51:20;;;;;;;3.38;1.20;;;;;;;;;;5066894;28;20024;-72
2022/07/16 07:53:46;;;;;;;1.92;1.38;;;;;;;;;;5067162;28;20279;-72
2022/07/16 07:56:12;;;;;;;4.05;1.40;;;;;;;;;;5066860;28;20020;-73
2022/07/16 07:58:38;;;;;;;3.20;1.20;;;;;;;;;;5066938;28;20508;-76
2022/07/16 08:01:04;;;;;;;1.65;1.10;;;;;;;;;;5063937;28;20346;-72
2022/07/16 08:03:29;;;;;;;1.88;1.10;;;;;;;;;;5066396;28;20038;-72
2022/07/16 08:05:55;;;;;;;2.33;1.33;;;;;;;;;;5067219;28;20099;-71
2022/07/16 08:08:20;;;;;;;2.85;1.17;;;;;;;;;;5065986;28;20486;-70
2022/07/16 08:10:45;;;;;;;3.22;1.77;;;;;;;;;;5067358;28;20385;-72
2022/07/16 08:13:11;;;;;;;5.00;1.50;;;;;;;;;;5067308;28;20449;-72
2022/07/16 08:15:36;;;;;;;3.40;1.20;;;;;;;;;;5065251;28;20039;-73
2022/07/16 08:18:01;;;;;;;2.80;1.20;;;;;;;;;;5066530;28;20562;-71
2022/07/16 08:20:27;;;;;;;2.40;1.40;;;;;;;;;;5066103;28;20032;-74
2022/07/16 08:22:52;;;;;;;3.90;1.30;;;;;;;;;;5066370;28;20030;-72
2022/07/16 08:28:01;;;;;;;1.98;1.13;;;;;;;;;;5066178;28;20291;-72
2022/07/16 08:30:27;;;;;;;2.08;1.27;;;;;;;;;;5066043;28;20024;-73
2022/07/16 08:32:52;;;;;;;2.20;0.98;;;;;;;;;;5066667;28;20028;-72
2022/07/16 08:35:18;;;;;;;1.75;1.00;;;;;;;;;;5065740;28;20029;-71
2022/07/16 08:37:45;;;;;;;2.35;0.95;;;;;;;;;;5064881;28;20429;-74
2022/07/16 08:40:18;;;;;;;1.45;1.10;;;;;;;;;;5065863;28;20063;-72
2022/07/16 08:42:45;;;;;;;2.75;1.30;;;;;;;;;;5066125;28;20404;-71
2022/07/16 08:45:11;;;;;;;2.30;1.27;;;;;;;;;;5065882;28;20384;-74
2022/07/16 08:47:37;;;;;;;4.13;1.20;;;;;;;;;;5064758;28;20902;-72
2022/07/16 08:50:08;;;;;;;3.28;1.10;;;;;;;;;;5063972;28;20071;-72
2022/07/16 08:52:37;;;;;;;2.17;1.10;;;;;;;;;;5065805;28;20346;-74
2022/07/16 08:55:03;;;;;;;2.72;1.17;;;;;;;;;;5065752;28;20028;-73
2022/07/16 08:57:29;;;;;;;1.63;1.00;;;;;;;;;;5065388;28;20563;-72
2022/07/16 08:59:55;;;;;;;3.58;1.33;;;;;;;;;;5065469;28;20097;-73
2022/07/16 09:02:20;;;;;;;5.30;1.30;;;;;;;;;;5065228;28;20024;-71
2022/07/16 09:04:46;;;;;;;3.90;1.40;;;;;;;;;;5065066;28;20024;-72
2022/07/16 09:07:13;;;;;;;3.28;1.15;;;;;;;;;;5064575;28;20273;-70
2022/07/16 09:09:39;;;;;;;2.25;1.10;;;;;;;;;;5065331;28;20267;-71
2022/07/16 09:12:04;;;;;;;2.08;1.13;;;;;;;;;;5065197;28;20044;-71
2022/07/16 09:14:29;;;;;;;2.22;1.23;;;;;;;;;;5065041;28;20387;-71
2022/07/16 09:16:55;;;;;;;3.90;1.37;;;;;;;;;;5064267;28;20024;-72
2022/07/16 09:19:23;;;;;;;3.03;1.42;;;;;;;;;;5064558;28;20249;-71
2022/07/16 09:22:07;;;;;;;3.70;1.50;;;;;;;;;;5064086;28;20032;-71
2022/07/16 09:24:34;;;;;;;2.00;1.10;;;;;;;;;;5064771;28;20156;-71
2022/07/16 09:27:04;;;;;;;1.90;1.20;;;;;;;;;;5063997;28;20036;-70
2022/07/16 09:29:33;;;;;;;2.78;1.10;;;;;;;;;;5064184;28;20183;-73
2022/07/16 09:31:58;;;;;;;2.78;1.33;;;;;;;;;;5064636;28;20225;-71
2022/07/16 09:34:23;;;;;;;3.87;1.30;;;;;;;;;;5064198;28;20052;-71
2022/07/16 09:37:02;;;;;;;2.33;1.20;;;;;;;;;;5064612;28;20478;-72
2022/07/16 09:39:29;;;;;;;3.30;1.40;;;;;;;;;;5064096;28;20024;-71
2022/07/16 09:41:55;;;;;;;1.98;1.30;;;;;;;;;;5063882;28;20032;-71
2022/07/16 09:44:31;;;;;;;4.97;1.50;;;;;;;;;;5063960;28;20024;-73
2022/07/16 09:47:06;;;;;;;3.13;1.20;;;;;;;;;;5063924;28;20029;-78
2022/07/16 09:49:36;;;;;;;2.00;1.30;;;;;;;;;;5064002;28;20020;-76
2022/07/16 09:52:03;;;;;;;3.75;1.23;;;;;;;;;;5064200;28;20355;-70
2022/07/16 09:54:34;;;;;;;1.98;1.50;;;;;;;;;;5064058;28;20402;-70
2022/07/16 09:57:07;;;;;;;;;;;;;;;;;;5066083;28;20470;-72
2022/07/16 09:59:32;;;;;;;4.18;1.30;;;;;;;;;;5066547;28;19947;-72
2022/07/16 10:01:58;;;;;;;2.13;1.40;;;;;;;;;;5064987;28;20056;-72
2022/07/16 10:04:24;;;;;;;1.85;1.20;;;;;;;;;;5065069;28;20025;-72
2022/07/16 10:06:49;;;;;;;3.67;1.45;;;;;;;;;;5069170;28;20037;-73
2022/07/16 10:09:15;;;;;;;3.15;1.33;;;;;;;;;;5067232;28;20060;-70
2022/07/16 10:11:43;;;;;;;2.03;1.33;;;;;;;;;;5070288;28;20029;-69
2022/07/16 10:14:09;;;;;;;2.10;1.33;;;;;;;;;;5035300;28;1023276;-72
2022/07/16 10:16:45;;;;;;;5.45;1.50;;;;;;;;;;5071271;28;20076;-72
2022/07/16 10:19:11;;;;;;;2.92;1.30;;;;;;;;;;5071220;28;20020;-70
2022/07/16 10:21:36;;;;;;;2.53;1.48;;;;;;;;;;5071117;28;20474;-70
2022/07/16 10:24:06;;;;;;;2.47;1.13;;;;;;;;;;5071384;28;20028;-72
2022/07/16 10:26:32;;;;;;;2.42;1.33;;;;;;;;;;5071428;28;20159;-70
2022/07/16 10:28:59;;;;;;;1.48;1.10;;;;;;;;;;5071059;28;20024;-71
2022/07/16 10:34:32;;;;;;;2.00;1.10;;;;;;;;;;5071636;28;20047;-73
2022/07/16 10:36:58;;;;;;;2.37;1.37;;;;;;;;;;5071506;28;20027;-74
2022/07/16 10:39:25;;;;;;;2.00;1.10;;;;;;;;;;5071365;28;20029;-74
2022/07/16 10:42:02;;;;;;;2.45;1.20;;;;;;;;;;5071773;28;20025;-70
2022/07/16 10:44:44;;;;;;;2.95;1.40;;;;;;;;;;5071536;28;20035;-72
2022/07/16 10:47:09;;;;;;;2.72;1.80;;;;;;;;;;5071321;28;20037;-72
2022/07/16 10:49:35;;;;;;;1.80;1.05;;;;;;;;;;5070764;28;20103;-71
2022/07/16 10:52:05;;;;;;;3.67;1.58;;;;;;;;;;5071498;28;20031;-71
2022/07/16 10:54:33;;;;;;;3.13;1.40;;;;;;;;;;5071155;28;20133;-71
2022/07/16 10:57:00;;;;;;;2.33;1.30;;;;;;;;;;5071087;28;20478;-73
2022/07/16 10:59:37;;;;;;;3.67;1.60;;;;;;;;;;5071070;28;20203;-73
2022/07/16 11:02:08;;;;;;;2.35;1.65;;;;;;;;;;5071094;28;20025;-75
2022/07/16 11:04:33;;;;;;;;;;;;;;;;;;5071552;28;20465;-75
2022/07/16 11:07:00;;;;;;;1.80;1.20;;;;;;;;;;5071126;28;19966;-76
2022/07/16 11:09:32;;;;;;;3.03;1.40;;;;;;;;;;5070977;28;20040;-75
2022/07/16 11:12:14;;;;;;;1.80;1.38;;;;;;;;;;5071072;28;20029;-72
2022/07/16 11:14:41;;;;;;;2.22;1.40;;;;;;;;;;5070886;28;20063;-73
2022/07/16 11:17:07;;;;;;;4.82;1.52;;;;;;;;;;5070807;28;20033;-73
2022/07/16 11:19:41;;;;;;;1.83;1.38;;;;;;;;;;5070833;28;20097;-73
2022/07/16 11:22:07;;;;;;;1.60;1.20;;;;;;;;;;5070444;28;20036;-73
2022/07/16 11:24:33;;;;;;;4.07;1.63;;;;;;;;;;5070753;28;20035;-74
2022/07/16 11:26:59;;;;;;;2.60;1.40;;;;;;;;;;5070648;28;20017;-73
2022/07/16 11:29:26;;;;;;;1.55;1.10;;;;;;;;;;5070723;28;20028;-74
2022/07/16 11:31:52;;;;;;;2.28;1.40;;;;;;;;;;5070583;28;20028;-75
2022/07/16 11:34:19;;;;;;;2.47;1.40;;;;;;;;;;5070516;28;20033;-73
2022/07/16 11:36:52;;;;;;;2.47;1.20;;;;;;;;;;5069439;28;20162;-73
2022/07/16 11:39:20;;;;;;;2.42;1.30;;;;;;;;;;5070890;28;20420;-73
2022/07/16 11:41:48;;;;;;;2.05;1.40;;;;;;;;;;5070202;28;20103;-76
2022/07/16 11:44:17;;;;;;;4.22;1.40;;;;;;;;;;5070225;28;20514;-73
2022/07/16 11:46:43;;;;;;;1.15;1.05;;;;;;;;;;5070218;28;20938;-73
2022/07/16 11:49:08;;;;;;;5.87;1.40;;;;;;;;;;5069744;28;20117;-74
2022/07/16 11:51:38;;;;;;;2.33;1.50;;;;;;;;;;5069923;28;20263;-75
2022/07/16 11:54:03;;;;;;;2.72;1.23;;;;;;;;;;5070194;28;20035;-71
2022/07/16 11:56:36;;;;;;;3.03;1.30;;;;;;;;;;5069883;28;20024;-74
2022/07/16 11:59:20;;;;;;;2.13;1.25;;;;;;;;;;5069334;28;20043;-72
2022/07/16 12:01:45;;;;;;;1.95;1.35;;;;;;;;;;5069415;28;20035;-74
2022/07/16 12:04:11;;;;;;;2.35;1.40;;;;;;;;;;5069543;28;20028;-72
2022/07/16 12:06:37;;;;;;;2.25;1.30;;;;;;;;;;5069141;28;20034;-74
2022/07/16 12:09:03;;;;;;;3.67;1.45;;;;;;;;;;5069024;28;20024;-74
2022/07/16 12:11:32;;;;;;;4.22;1.20;;;;;;;;;;5069158;28;20043;-72
2022/07/16 12:13:58;;;;;;;2.20;1.10;;;;;;;;;;5069111;28;20033;-72
2022/07/16 12:16:24;;;;;;;3.13;1.35;;;;;;;;;;5068940;28;20025;-73
2022/07/16 12:19:05;;;;;;;2.08;1.33;;;;;;;;;;5068976;28;20028;-75
2022/07/16 12:21:33;;;;;;;2.55;1.42;;;;;;;;;;5067716;28;20738;-73
2022/07/16 12:23:59;;;;;;;3.00;1.20;;;;;;;;;;5069603;28;20030;-72
2022/07/16 12:26:34;;;;;;;2.40;1.58;;;;;;;;;;5069110;28;20025;-72
2022/07/16 12:29:01;;;;;;;2.75;1.40;;;;;;;;;;5068394;28;20120;-71
2022/07/16 12:31:29;;;;;;;2.30;1.70;;;;;;;;;;5069020;28;20043;-74
2022/07/16 12:33:55;;;;;;;2.47;1.38;;;;;;;;;;5069260;28;20295;-73
2022/07/16 12:36:28;;;;;;;2.05;1.50;;;;;;;;;;5068958;28;20040;-74
2022/07/16 12:39:02;;;;;;;1.92;1.40;;;;;;;;;;5069548;28;20012;-73
2022/07/16 12:41:32;;;;;;;2.03;1.30;;;;;;;;;;5069262;28;20107;-74
2022/07/16 12:44:09;;;;;;;2.72;1.30;;;;;;;;;;5069431;28;20051;-71
2022/07/16 12:46:47;;;;;;;3.00;1.67;;;;;;;;;;5069604;28;20032;-75
2022/07/16 12:49:18;;;;;;;3.17;1.50;;;;;;;;;;5069155;28;20564;-73
2022/07/16 12:51:46;;;;;;;1.95;1.48;;;;;;;;;;5069086;28;20032;-74
2022/07/16 12:54:13;;;;;;;2.08;1.25;;;;;;;;;;5068718;28;20075;-75
2022/07/16 12:59:24;;;;;;;3.00;1.48;;;;;;;;;;5068416;28;20090;-72
2022/07/16 13:01:50;;;;;;;2.80;1.35;;;;;;;;;;5068489;28;20093;-74
2022/07/16 13:04:15;;;;;;;2.85;1.70;;;;;;;;;;5069022;28;20029;-72
2022/07/16 13:06:41;;;;;;;2.47;1.50;;;;;;;;;;5068101;28;20028;-74
2022/07/16 13:09:08;;;;;;;1.90;1.45;;;;;;;;;;5068191;28;20100;-72
2022/07/16 13:11:35;;;;;;;3.00;1.92;;;;;;;;;;5069194;28;20033;-73
2022/07/16 13:14:02;;;;;;;3.22;1.60;;;;;;;;;;5068904;28;20036;-70
2022/07/16 13:16:27;;;;;;;3.63;1.90;;;;;;;;;;5068149;28;20036;-71
2022/07/16 13:18:57;;;;;;;3.53;1.38;;;;;;;;;;5068640;28;20043;-74
2022/07/16 13:21:24;;;;;;;2.45;1.42;;;;;;;;;;5068046;28;20028;-73
2022/07/16 13:23:53;;;;;;;1.70;1.40;;;;;;;;;;5068338;28;20414;-73
2022/07/16 13:26:19;;;;;;;2.97;1.50;;;;;;;;;;5068315;28;20397;-74
2022/07/16 13:28:45;;;;;;;2.70;1.88;;;;;;;;;;5068063;28;20028;-73
2022/07/16 13:31:11;;;;;;;1.90;1.70;;;;;;;;;;5067994;28;20044;-72
2022/07/16 13:33:36;;;;;;;2.67;1.60;;;;;;;;;;5067776;28;20332;-77
2022/07/16 13:36:02;;;;;;;2.67;2.30;;;;;;;;;;5067365;28;20589;-73
2022/07/16 13:38:28;;;;;;;2.58;1.85;;;;;;;;;;5067173;28;20017;-74
2022/07/16 13:40:53;;;;;;;2.63;1.73;;;;;;;;;;5066936;28;20406;-75
2022/07/16 13:43:19;;;;;;;3.75;1.98;;;;;;;;;;5067987;28;20043;-75
2022/07/16 13:45:46;;;;;;;3.72;2.17;;;;;;;;;;5067644;28;20032;-76
2022/07/16 13:48:12;;;;;;;8.85;3.50;;;;;;;;;;5060945;28;20071;-71
2022/07/16 13:50:38;;;;;;;5.25;3.42;;;;;;;;;;5065091;28;20024;-74
2022/07/16 13:53:03;;;;;;;2.80;2.20;;;;;;;;;;5066931;28;20551;-73
2022/07/16 13:55:29;;;;;;;3.08;2.05;;;;;;;;;;5067920;28;20024;-73
2022/07/16 14:00:42;;;;;;;2.92;1.70;;;;;;;;;;5067777;28;20031;-74
2022/07/16 14:03:08;;;;;;;3.65;1.90;;;;;;;;;;5068063;28;20020;-73
2022/07/16 14:05:33;;;;;;;2.47;1.77;;;;;;;;;;5067998;28;20032;-72
2022/07/16 14:07:59;;;;;;;1.55;1.40;;;;;;;;;;5068238;28;20386;-70
2022/07/16 14:10:24;;;;;;;5.15;1.67;;;;;;;;;;5068145;28;20047;-72
2022/07/16 14:12:49;;;;;;;1.70;1.60;;;;;;;;;;5068520;28;20090;-75
2022/07/16 14:15:15;;;;;;;2.67;1.63;;;;;;;;;;5068322;28;20032;-75
2022/07/16 14:17:42;;;;;;;1.60;1.50;;;;;;;;;;5068660;28;20024;-71
2022/07/16 14:20:09;;;;;;;2.80;1.67;;;;;;;;;;5068230;28;20024;-72
2022/07/16 14:22:34;;;;;;;1.80;1.60;;;;;;;;;;5068221;28;20079;-71
2022/07/16 14:24:59;;;;;;;6.90;1.80;;;;;;;;;;5068305;28;20025;-72
2022/07/16 14:27:25;;;;;;;3.08;1.73;;;;;;;;;;5067993;28;20025;-70
2022/07/16 14:29:50;;;;;;;5.80;1.70;;;;;;;;;;5067641;28;20032;-70
2022/07/16 14:32:16;;;;;;;1.90;1.70;;;;;;;;;;5067987;28;20111;-71
2022/07/16 14:34:41;;;;;;;1.98;1.63;;;;;;;;;;5066552;28;20571;-70
2022/07/16 14:37:06;;;;;;;4.03;1.80;;;;;;;;;;5067772;28;20028;-71
2022/07/16 14:39:32;;;;;;;1.83;1.60;;;;;;;;;;5067481;28;20058;-71
2022/07/16 14:41:57;;;;;;;2.30;1.75;;;;;;;;;;5067448;28;20090;-69
2022/07/16 14:44:22;;;;;;;2.08;1.75;;;;;;;;;;5067576;28;20028;-70
2022/07/16 14:46:48;;;;;;;2.78;1.63;;;;;;;;;;5067379;28;20029;-69
2022/07/16 14:49:13;;;;;;;1.83;1.45;;;;;;;;;;5067505;28;20513;-69
2022/07/16 14:51:38;;;;;;;2.30;1.48;;;;;;;;;;5068922;28;20032;-71